sensor_id;sensor_type;location;lat;lon;timestamp;P1;durP1;ratioP1;P2;durP2;ratioP2
41059;SDS011;26811;53.160;8.202;2023-02-22T00:03:48;323.58;;;121.90;;
41059;SDS011;26811;53.160;8.202;2023-02-22T00:08:50;116.38;;;36.40;;
41059;SDS011;26811;53.160;8.202;2023-02-22T00:13:52;94.90;;;27.00;;
41059;SDS011;26811;53.160;8.202;2023-02-22T00:18:56;101.13;;;27.30;;
41059;SDS011;26811;53.160;8.202;2023-02-22T00:23:56;103.68;;;26.90;;
41059;SDS011;26811;53.160;8.202;2023-02-22T00:28:57;109.70;;;28.08;;
41059;SDS011;26811;53.160;8.202;2023-02-22T00:33:57;106.75;;;27.75;;
41059;SDS011;26811;53.160;8.202;2023-02-22T00:38:59;104.70;;;27.25;;
41059;SDS011;26811;53.160;8.202;2023-02-22T00:44:00;94.38;;;26.00;;
41059;SDS011;26811;53.160;8.202;2023-02-22T00:49:00;107.70;;;28.58;;
41059;SDS011;26811;53.160;8.202;2023-02-22T00:54:01;108.70;;;27.88;;
41059;SDS011;26811;53.160;8.202;2023-02-22T00:59:02;97.82;;;26.65;;
41059;SDS011;26811;53.160;8.202;2023-02-22T01:04:02;105.28;;;27.20;;
41059;SDS011;26811;53.160;8.202;2023-02-22T01:09:03;104.28;;;27.45;;
41059;SDS011;26811;53.160;8.202;2023-02-22T01:14:04;97.00;;;26.55;;
41059;SDS011;26811;53.160;8.202;2023-02-22T01:19:08;89.50;;;25.10;;
41059;SDS011;26811;53.160;8.202;2023-02-22T01:24:10;89.55;;;25.42;;
41059;SDS011;26811;53.160;8.202;2023-02-22T01:29:15;92.47;;;25.30;;
41059;SDS011;26811;53.160;8.202;2023-02-22T01:34:17;93.40;;;24.58;;
41059;SDS011;26811;53.160;8.202;2023-02-22T01:39:18;85.78;;;23.73;;
41059;SDS011;26811;53.160;8.202;2023-02-22T01:49:29;90.47;;;26.80;;
41059;SDS011;26811;53.160;8.202;2023-02-22T01:54:35;91.13;;;24.88;;
41059;SDS011;26811;53.160;8.202;2023-02-22T01:59:41;90.55;;;24.88;;
41059;SDS011;26811;53.160;8.202;2023-02-22T02:04:45;93.05;;;25.13;;
41059;SDS011;26811;53.160;8.202;2023-02-22T02:09:51;91.10;;;24.17;;
41059;SDS011;26811;53.160;8.202;2023-02-22T02:20:32;92.53;;;25.40;;
41059;SDS011;26811;53.160;8.202;2023-02-22T02:31:33;100.85;;;26.50;;
41059;SDS011;26811;53.160;8.202;2023-02-22T02:42:10;114.10;;;26.60;;
41059;SDS011;26811;53.160;8.202;2023-02-22T02:47:19;125.57;;;28.92;;
41059;SDS011;26811;53.160;8.202;2023-02-22T02:52:24;143.27;;;29.40;;
41059;SDS011;26811;53.160;8.202;2023-02-22T02:57:26;136.57;;;30.95;;
41059;SDS011;26811;53.160;8.202;2023-02-22T03:07:37;133.88;;;27.35;;
41059;SDS011;26811;53.160;8.202;2023-02-22T03:12:51;128.95;;;28.08;;
41059;SDS011;26811;53.160;8.202;2023-02-22T03:28:44;111.55;;;26.73;;
41059;SDS011;26811;53.160;8.202;2023-02-22T03:33:58;105.60;;;28.23;;
41059;SDS011;26811;53.160;8.202;2023-02-22T03:39:04;112.50;;;27.13;;
41059;SDS011;26811;53.160;8.202;2023-02-22T03:44:10;99.88;;;26.67;;
41059;SDS011;26811;53.160;8.202;2023-02-22T03:54:29;92.40;;;24.85;;
41059;SDS011;26811;53.160;8.202;2023-02-22T03:59:30;89.72;;;25.38;;
41059;SDS011;26811;53.160;8.202;2023-02-22T04:04:32;91.47;;;25.35;;
41059;SDS011;26811;53.160;8.202;2023-02-22T04:09:32;88.93;;;24.67;;
41059;SDS011;26811;53.160;8.202;2023-02-22T04:14:33;89.40;;;25.38;;
41059;SDS011;26811;53.160;8.202;2023-02-22T04:19:33;82.63;;;23.42;;
41059;SDS011;26811;53.160;8.202;2023-02-22T04:24:34;79.97;;;23.10;;
41059;SDS011;26811;53.160;8.202;2023-02-22T04:29:35;78.82;;;23.63;;
41059;SDS011;26811;53.160;8.202;2023-02-22T04:34:35;73.40;;;22.45;;
41059;SDS011;26811;53.160;8.202;2023-02-22T04:39:36;72.88;;;22.40;;
41059;SDS011;26811;53.160;8.202;2023-02-22T04:44:36;75.20;;;23.42;;
41059;SDS011;26811;53.160;8.202;2023-02-22T04:49:37;68.85;;;22.38;;
41059;SDS011;26811;53.160;8.202;2023-02-22T04:54:38;68.57;;;22.17;;
41059;SDS011;26811;53.160;8.202;2023-02-22T04:59:38;70.32;;;21.73;;
41059;SDS011;26811;53.160;8.202;2023-02-22T05:04:39;72.72;;;21.90;;
41059;SDS011;26811;53.160;8.202;2023-02-22T05:09:40;68.30;;;22.23;;
41059;SDS011;26811;53.160;8.202;2023-02-22T05:14:40;65.03;;;21.75;;
41059;SDS011;26811;53.160;8.202;2023-02-22T05:19:41;68.03;;;22.13;;
41059;SDS011;26811;53.160;8.202;2023-02-22T05:24:42;70.75;;;21.73;;
41059;SDS011;26811;53.160;8.202;2023-02-22T05:29:42;66.85;;;21.45;;
41059;SDS011;26811;53.160;8.202;2023-02-22T05:34:43;75.50;;;23.23;;
41059;SDS011;26811;53.160;8.202;2023-02-22T05:39:44;69.70;;;22.20;;
41059;SDS011;26811;53.160;8.202;2023-02-22T05:44:45;78.22;;;23.13;;
41059;SDS011;26811;53.160;8.202;2023-02-22T05:49:46;77.93;;;22.83;;
41059;SDS011;26811;53.160;8.202;2023-02-22T05:54:46;71.35;;;23.05;;
41059;SDS011;26811;53.160;8.202;2023-02-22T05:59:47;73.43;;;21.73;;
41059;SDS011;26811;53.160;8.202;2023-02-22T06:04:47;71.88;;;21.98;;
41059;SDS011;26811;53.160;8.202;2023-02-22T06:09:48;77.95;;;22.75;;
41059;SDS011;26811;53.160;8.202;2023-02-22T06:14:48;85.85;;;23.65;;
41059;SDS011;26811;53.160;8.202;2023-02-22T06:19:49;87.15;;;24.95;;
41059;SDS011;26811;53.160;8.202;2023-02-22T06:24:49;85.95;;;24.67;;
41059;SDS011;26811;53.160;8.202;2023-02-22T06:29:50;85.93;;;23.95;;
41059;SDS011;26811;53.160;8.202;2023-02-22T06:34:50;84.18;;;23.33;;
41059;SDS011;26811;53.160;8.202;2023-02-22T06:39:51;97.35;;;26.88;;
41059;SDS011;26811;53.160;8.202;2023-02-22T06:44:51;96.07;;;26.00;;
41059;SDS011;26811;53.160;8.202;2023-02-22T06:49:52;94.18;;;25.13;;
41059;SDS011;26811;53.160;8.202;2023-02-22T06:54:54;94.03;;;26.40;;
41059;SDS011;26811;53.160;8.202;2023-02-22T06:59:54;96.00;;;25.50;;
41059;SDS011;26811;53.160;8.202;2023-02-22T07:04:55;90.60;;;25.27;;
41059;SDS011;26811;53.160;8.202;2023-02-22T07:09:55;88.70;;;25.85;;
41059;SDS011;26811;53.160;8.202;2023-02-22T07:14:56;102.40;;;27.17;;
41059;SDS011;26811;53.160;8.202;2023-02-22T07:19:56;98.10;;;27.73;;
41059;SDS011;26811;53.160;8.202;2023-02-22T07:24:57;93.53;;;25.30;;
41059;SDS011;26811;53.160;8.202;2023-02-22T07:29:57;106.95;;;27.20;;
41059;SDS011;26811;53.160;8.202;2023-02-22T07:34:58;95.75;;;25.98;;
41059;SDS011;26811;53.160;8.202;2023-02-22T07:40:00;97.25;;;24.73;;
41059;SDS011;26811;53.160;8.202;2023-02-22T07:45:01;111.25;;;27.67;;
41059;SDS011;26811;53.160;8.202;2023-02-22T07:50:02;97.80;;;24.45;;
41059;SDS011;26811;53.160;8.202;2023-02-22T07:55:02;88.13;;;25.08;;
41059;SDS011;26811;53.160;8.202;2023-02-22T08:00:03;97.50;;;25.63;;
41059;SDS011;26811;53.160;8.202;2023-02-22T08:05:04;98.03;;;25.48;;
41059;SDS011;26811;53.160;8.202;2023-02-22T08:10:06;87.28;;;23.73;;
41059;SDS011;26811;53.160;8.202;2023-02-22T08:15:08;83.13;;;22.67;;
41059;SDS011;26811;53.160;8.202;2023-02-22T08:20:14;84.50;;;24.35;;
41059;SDS011;26811;53.160;8.202;2023-02-22T08:25:15;77.38;;;21.77;;
41059;SDS011;26811;53.160;8.202;2023-02-22T08:30:19;71.30;;;20.95;;
41059;SDS011;26811;53.160;8.202;2023-02-22T08:35:21;71.32;;;21.33;;
41059;SDS011;26811;53.160;8.202;2023-02-22T08:40:24;72.60;;;21.17;;
41059;SDS011;26811;53.160;8.202;2023-02-22T08:45:26;69.90;;;21.25;;
41059;SDS011;26811;53.160;8.202;2023-02-22T08:50:29;70.65;;;22.13;;
41059;SDS011;26811;53.160;8.202;2023-02-22T08:55:33;69.28;;;20.60;;
41059;SDS011;26811;53.160;8.202;2023-02-22T09:00:37;74.93;;;22.17;;
41059;SDS011;26811;53.160;8.202;2023-02-22T09:05:39;76.90;;;22.02;;
41059;SDS011;26811;53.160;8.202;2023-02-22T09:10:41;65.57;;;21.15;;
41059;SDS011;26811;53.160;8.202;2023-02-22T09:15:41;62.83;;;20.23;;
41059;SDS011;26811;53.160;8.202;2023-02-22T09:20:42;64.65;;;19.63;;
41059;SDS011;26811;53.160;8.202;2023-02-22T09:25:42;71.22;;;23.38;;
41059;SDS011;26811;53.160;8.202;2023-02-22T09:30:43;64.15;;;21.50;;
41059;SDS011;26811;53.160;8.202;2023-02-22T09:35:45;64.57;;;21.88;;
41059;SDS011;26811;53.160;8.202;2023-02-22T09:40:50;66.10;;;21.90;;
41059;SDS011;26811;53.160;8.202;2023-02-22T09:51:17;66.57;;;21.35;;
41059;SDS011;26811;53.160;8.202;2023-02-22T09:56:19;61.35;;;21.17;;
41059;SDS011;26811;53.160;8.202;2023-02-22T10:06:26;54.97;;;21.17;;
41059;SDS011;26811;53.160;8.202;2023-02-22T10:11:36;55.03;;;20.88;;
41059;SDS011;26811;53.160;8.202;2023-02-22T10:16:50;65.28;;;22.30;;
41059;SDS011;26811;53.160;8.202;2023-02-22T10:22:03;57.90;;;22.95;;
41059;SDS011;26811;53.160;8.202;2023-02-22T10:27:20;80.57;;;32.40;;
41059;SDS011;26811;53.160;8.202;2023-02-22T10:32:29;98.57;;;37.88;;
41059;SDS011;26811;53.160;8.202;2023-02-22T10:37:34;98.47;;;41.00;;
41059;SDS011;26811;53.160;8.202;2023-02-22T10:42:35;86.07;;;35.92;;
41059;SDS011;26811;53.160;8.202;2023-02-22T10:47:35;83.72;;;33.33;;
41059;SDS011;26811;53.160;8.202;2023-02-22T10:52:36;74.78;;;30.25;;
41059;SDS011;26811;53.160;8.202;2023-02-22T10:57:37;81.78;;;32.92;;
41059;SDS011;26811;53.160;8.202;2023-02-22T11:02:37;76.15;;;29.65;;
41059;SDS011;26811;53.160;8.202;2023-02-22T11:07:47;71.82;;;27.55;;
41059;SDS011;26811;53.160;8.202;2023-02-22T11:12:47;60.20;;;24.90;;
41059;SDS011;26811;53.160;8.202;2023-02-22T11:17:50;65.43;;;26.52;;
41059;SDS011;26811;53.160;8.202;2023-02-22T11:22:56;62.13;;;25.95;;
41059;SDS011;26811;53.160;8.202;2023-02-22T11:28:10;66.85;;;25.65;;
41059;SDS011;26811;53.160;8.202;2023-02-22T11:33:29;65.10;;;25.70;;
41059;SDS011;26811;53.160;8.202;2023-02-22T11:38:31;58.20;;;24.45;;
41059;SDS011;26811;53.160;8.202;2023-02-22T11:48:34;63.90;;;22.92;;
41059;SDS011;26811;53.160;8.202;2023-02-22T11:59:09;53.10;;;21.05;;
41059;SDS011;26811;53.160;8.202;2023-02-22T12:10:04;58.42;;;21.25;;
41059;SDS011;26811;53.160;8.202;2023-02-22T12:20:38;49.38;;;19.98;;
41059;SDS011;26811;53.160;8.202;2023-02-22T12:26:04;52.42;;;19.63;;
41059;SDS011;26811;53.160;8.202;2023-02-22T12:31:13;50.38;;;19.67;;
41059;SDS011;26811;53.160;8.202;2023-02-22T12:36:19;50.65;;;19.00;;
41059;SDS011;26811;53.160;8.202;2023-02-22T12:41:25;52.35;;;18.83;;
41059;SDS011;26811;53.160;8.202;2023-02-22T12:56:52;50.92;;;19.35;;
41059;SDS011;26811;53.160;8.202;2023-02-22T13:02:03;47.90;;;18.73;;
41059;SDS011;26811;53.160;8.202;2023-02-22T13:07:17;49.50;;;18.05;;
41059;SDS011;26811;53.160;8.202;2023-02-22T13:12:23;45.70;;;18.50;;
41059;SDS011;26811;53.160;8.202;2023-02-22T13:23:06;42.53;;;17.92;;
41059;SDS011;26811;53.160;8.202;2023-02-22T13:28:17;43.20;;;17.63;;
41059;SDS011;26811;53.160;8.202;2023-02-22T13:33:24;42.92;;;18.23;;
41059;SDS011;26811;53.160;8.202;2023-02-22T13:39:26;46.53;;;17.58;;
41059;SDS011;26811;53.160;8.202;2023-02-22T13:44:38;45.63;;;18.65;;
41059;SDS011;26811;53.160;8.202;2023-02-22T13:50:19;45.20;;;18.02;;
41059;SDS011;26811;53.160;8.202;2023-02-22T13:55:42;41.17;;;17.92;;
41059;SDS011;26811;53.160;8.202;2023-02-22T14:00:49;43.22;;;18.67;;
41059;SDS011;26811;53.160;8.202;2023-02-22T14:05:58;45.95;;;18.27;;
41059;SDS011;26811;53.160;8.202;2023-02-22T14:11:00;44.88;;;18.20;;
41059;SDS011;26811;53.160;8.202;2023-02-22T14:21:12;43.33;;;17.55;;
41059;SDS011;26811;53.160;8.202;2023-02-22T14:26:15;42.13;;;17.17;;
41059;SDS011;26811;53.160;8.202;2023-02-22T14:41:55;47.00;;;19.23;;
41059;SDS011;26811;53.160;8.202;2023-02-22T14:47:18;45.72;;;19.52;;
41059;SDS011;26811;53.160;8.202;2023-02-22T14:52:23;45.35;;;19.40;;
41059;SDS011;26811;53.160;8.202;2023-02-22T15:02:49;42.50;;;17.40;;
41059;SDS011;26811;53.160;8.202;2023-02-22T15:07:52;44.67;;;18.35;;
41059;SDS011;26811;53.160;8.202;2023-02-22T15:12:56;46.85;;;17.77;;
41059;SDS011;26811;53.160;8.202;2023-02-22T15:23:13;49.60;;;18.73;;
41059;SDS011;26811;53.160;8.202;2023-02-22T15:28:16;47.93;;;20.40;;
41059;SDS011;26811;53.160;8.202;2023-02-22T15:33:18;44.35;;;18.38;;
41059;SDS011;26811;53.160;8.202;2023-02-22T15:38:27;45.85;;;18.70;;
41059;SDS011;26811;53.160;8.202;2023-02-22T15:43:29;49.63;;;19.13;;
41059;SDS011;26811;53.160;8.202;2023-02-22T15:48:31;58.25;;;21.75;;
41059;SDS011;26811;53.160;8.202;2023-02-22T15:53:47;46.50;;;20.20;;
41059;SDS011;26811;53.160;8.202;2023-02-22T15:58:49;51.90;;;19.63;;
41059;SDS011;26811;53.160;8.202;2023-02-22T16:03:52;47.03;;;19.73;;
41059;SDS011;26811;53.160;8.202;2023-02-22T16:08:54;48.05;;;19.90;;
41059;SDS011;26811;53.160;8.202;2023-02-22T16:24:26;49.10;;;21.02;;
41059;SDS011;26811;53.160;8.202;2023-02-22T16:29:31;49.05;;;20.10;;
41059;SDS011;26811;53.160;8.202;2023-02-22T16:34:32;56.70;;;21.65;;
41059;SDS011;26811;53.160;8.202;2023-02-22T16:39:32;54.08;;;21.30;;
41059;SDS011;26811;53.160;8.202;2023-02-22T16:44:34;52.03;;;21.73;;
41059;SDS011;26811;53.160;8.202;2023-02-22T16:49:35;58.63;;;22.85;;
41059;SDS011;26811;53.160;8.202;2023-02-22T16:54:40;56.53;;;22.85;;
41059;SDS011;26811;53.160;8.202;2023-02-22T16:59:44;53.22;;;21.98;;
41059;SDS011;26811;53.160;8.202;2023-02-22T17:09:48;58.28;;;22.58;;
41059;SDS011;26811;53.160;8.202;2023-02-22T17:14:50;57.67;;;23.02;;
41059;SDS011;26811;53.160;8.202;2023-02-22T17:19:51;56.72;;;22.25;;
41059;SDS011;26811;53.160;8.202;2023-02-22T17:24:51;63.60;;;23.23;;
41059;SDS011;26811;53.160;8.202;2023-02-22T17:29:52;59.40;;;24.02;;
41059;SDS011;26811;53.160;8.202;2023-02-22T17:34:52;66.07;;;25.67;;
41059;SDS011;26811;53.160;8.202;2023-02-22T17:39:53;65.47;;;26.13;;
41059;SDS011;26811;53.160;8.202;2023-02-22T17:44:54;62.65;;;23.75;;
41059;SDS011;26811;53.160;8.202;2023-02-22T17:49:55;67.65;;;24.25;;
41059;SDS011;26811;53.160;8.202;2023-02-22T17:54:56;62.67;;;24.13;;
41059;SDS011;26811;53.160;8.202;2023-02-22T17:59:57;64.10;;;25.98;;
41059;SDS011;26811;53.160;8.202;2023-02-22T18:04:59;62.80;;;24.17;;
41059;SDS011;26811;53.160;8.202;2023-02-22T18:10:00;68.00;;;25.40;;
41059;SDS011;26811;53.160;8.202;2023-02-22T18:15:05;60.03;;;23.95;;
41059;SDS011;26811;53.160;8.202;2023-02-22T18:20:07;60.15;;;24.35;;
41059;SDS011;26811;53.160;8.202;2023-02-22T18:25:12;65.88;;;26.67;;
41059;SDS011;26811;53.160;8.202;2023-02-22T18:30:13;64.30;;;26.73;;
41059;SDS011;26811;53.160;8.202;2023-02-22T18:35:14;66.65;;;26.90;;
41059;SDS011;26811;53.160;8.202;2023-02-22T18:40:14;68.90;;;27.30;;
41059;SDS011;26811;53.160;8.202;2023-02-22T18:45:17;73.75;;;27.60;;
41059;SDS011;26811;53.160;8.202;2023-02-22T18:50:19;74.40;;;27.73;;
41059;SDS011;26811;53.160;8.202;2023-02-22T18:55:20;70.53;;;28.25;;
41059;SDS011;26811;53.160;8.202;2023-02-22T19:00:21;74.43;;;28.58;;
41059;SDS011;26811;53.160;8.202;2023-02-22T19:05:23;79.77;;;29.07;;
41059;SDS011;26811;53.160;8.202;2023-02-22T19:10:24;69.35;;;28.75;;
41059;SDS011;26811;53.160;8.202;2023-02-22T19:15:24;68.88;;;28.38;;
41059;SDS011;26811;53.160;8.202;2023-02-22T19:20:25;63.22;;;26.48;;
41059;SDS011;26811;53.160;8.202;2023-02-22T19:25:31;70.47;;;30.08;;
41059;SDS011;26811;53.160;8.202;2023-02-22T19:30:32;91.15;;;36.08;;
41059;SDS011;26811;53.160;8.202;2023-02-22T19:35:32;89.57;;;36.30;;
41059;SDS011;26811;53.160;8.202;2023-02-22T19:40:35;91.57;;;35.90;;
41059;SDS011;26811;53.160;8.202;2023-02-22T19:45:37;79.22;;;31.75;;
41059;SDS011;26811;53.160;8.202;2023-02-22T19:50:39;96.40;;;33.13;;
41059;SDS011;26811;53.160;8.202;2023-02-22T19:55:48;82.00;;;34.22;;
41059;SDS011;26811;53.160;8.202;2023-02-22T20:00:48;94.68;;;39.53;;
41059;SDS011;26811;53.160;8.202;2023-02-22T20:05:57;92.30;;;38.08;;
41059;SDS011;26811;53.160;8.202;2023-02-22T20:11:00;88.47;;;38.72;;
41059;SDS011;26811;53.160;8.202;2023-02-22T20:16:04;91.90;;;35.38;;
41059;SDS011;26811;53.160;8.202;2023-02-22T20:21:06;83.32;;;34.75;;
41059;SDS011;26811;53.160;8.202;2023-02-22T20:26:18;83.43;;;33.90;;
41059;SDS011;26811;53.160;8.202;2023-02-22T20:31:21;85.50;;;34.75;;
41059;SDS011;26811;53.160;8.202;2023-02-22T20:36:22;84.60;;;33.65;;
41059;SDS011;26811;53.160;8.202;2023-02-22T20:41:30;91.05;;;35.30;;
41059;SDS011;26811;53.160;8.202;2023-02-22T20:46:32;103.05;;;39.70;;
41059;SDS011;26811;53.160;8.202;2023-02-22T20:51:36;102.10;;;39.30;;
41059;SDS011;26811;53.160;8.202;2023-02-22T20:56:41;86.82;;;38.95;;
41059;SDS011;26811;53.160;8.202;2023-02-22T21:01:43;104.97;;;41.92;;
41059;SDS011;26811;53.160;8.202;2023-02-22T21:06:46;97.30;;;38.13;;
41059;SDS011;26811;53.160;8.202;2023-02-22T21:11:47;107.35;;;41.13;;
41059;SDS011;26811;53.160;8.202;2023-02-22T21:16:48;108.40;;;40.08;;
41059;SDS011;26811;53.160;8.202;2023-02-22T21:21:54;97.15;;;40.75;;
41059;SDS011;26811;53.160;8.202;2023-02-22T21:26:55;101.60;;;39.20;;
41059;SDS011;26811;53.160;8.202;2023-02-22T21:31:59;102.28;;;40.97;;
41059;SDS011;26811;53.160;8.202;2023-02-22T21:37:01;111.18;;;41.35;;
41059;SDS011;26811;53.160;8.202;2023-02-22T21:42:02;110.25;;;42.97;;
41059;SDS011;26811;53.160;8.202;2023-02-22T21:47:05;103.90;;;43.15;;
41059;SDS011;26811;53.160;8.202;2023-02-22T21:52:06;93.20;;;37.17;;
41059;SDS011;26811;53.160;8.202;2023-02-22T21:57:07;98.18;;;38.47;;
41059;SDS011;26811;53.160;8.202;2023-02-22T22:02:08;96.97;;;37.45;;
41059;SDS011;26811;53.160;8.202;2023-02-22T22:07:09;95.80;;;38.85;;
41059;SDS011;26811;53.160;8.202;2023-02-22T22:12:10;96.55;;;37.90;;
41059;SDS011;26811;53.160;8.202;2023-02-22T22:17:10;102.38;;;36.45;;
41059;SDS011;26811;53.160;8.202;2023-02-22T22:22:11;96.45;;;39.60;;
41059;SDS011;26811;53.160;8.202;2023-02-22T22:27:11;96.57;;;37.60;;
41059;SDS011;26811;53.160;8.202;2023-02-22T22:32:12;102.90;;;39.65;;
41059;SDS011;26811;53.160;8.202;2023-02-22T22:37:13;100.93;;;39.22;;
41059;SDS011;26811;53.160;8.202;2023-02-22T22:42:15;92.05;;;37.05;;
41059;SDS011;26811;53.160;8.202;2023-02-22T22:47:16;98.53;;;36.58;;
41059;SDS011;26811;53.160;8.202;2023-02-22T22:52:18;96.28;;;36.10;;
41059;SDS011;26811;53.160;8.202;2023-02-22T22:57:18;91.03;;;36.13;;
41059;SDS011;26811;53.160;8.202;2023-02-22T23:02:22;88.72;;;35.15;;
41059;SDS011;26811;53.160;8.202;2023-02-22T23:07:22;95.90;;;36.78;;
41059;SDS011;26811;53.160;8.202;2023-02-22T23:12:23;93.72;;;35.58;;
41059;SDS011;26811;53.160;8.202;2023-02-22T23:17:30;84.15;;;34.45;;
41059;SDS011;26811;53.160;8.202;2023-02-22T23:22:39;87.78;;;35.58;;
41059;SDS011;26811;53.160;8.202;2023-02-22T23:27:46;93.70;;;34.50;;
41059;SDS011;26811;53.160;8.202;2023-02-22T23:32:47;94.38;;;35.88;;
41059;SDS011;26811;53.160;8.202;2023-02-22T23:37:50;96.35;;;35.58;;
41059;SDS011;26811;53.160;8.202;2023-02-22T23:42:56;91.25;;;33.95;;
41059;SDS011;26811;53.160;8.202;2023-02-22T23:47:57;87.10;;;33.13;;
41059;SDS011;26811;53.160;8.202;2023-02-22T23:53:00;90.22;;;33.40;;
41059;SDS011;26811;53.160;8.202;2023-02-22T23:58:02;106.72;;;34.72;;
